createdAt,value
2019-05-02T00:01:13.479Z,19.02
2019-05-02T00:03:42.934Z,21.90
2019-05-02T00:06:11.819Z,16.23
2019-05-02T00:08:40.356Z,17.62
2019-05-02T00:11:11.368Z,21.87
2019-05-02T00:13:40.251Z,20.20
2019-05-02T00:16:09.102Z,14.53
2019-05-02T00:18:39.156Z,14.00
2019-05-02T00:21:08.254Z,15.75
2019-05-02T00:23:36.735Z,17.25
2019-05-02T00:26:05.431Z,13.93
2019-05-02T00:28:33.972Z,17.37
2019-05-02T00:31:02.377Z,16.23
2019-05-02T00:33:34.376Z,18.77
2019-05-02T00:36:01.012Z,15.30
2019-05-02T00:38:33.313Z,15.03
2019-05-02T00:41:02.264Z,15.18
2019-05-02T00:43:34.467Z,14.98
2019-05-02T00:46:00.935Z,14.55
2019-05-02T00:48:36.985Z,16.23
2019-05-02T00:51:05.414Z,16.42
2019-05-02T00:53:33.812Z,14.60
2019-05-02T00:56:05.133Z,14.25
2019-05-02T00:58:33.127Z,16.85
2019-05-02T01:01:15.479Z,16.12
2019-05-02T01:03:47.241Z,13.05
2019-05-02T01:06:15.687Z,16.75
2019-05-02T01:08:44.156Z,13.80
2019-05-02T01:11:12.748Z,15.28
2019-05-02T01:13:41.153Z,21.68
2019-05-02T01:16:09.587Z,13.18
2019-05-02T01:18:41.323Z,14.45
2019-05-02T01:21:08.111Z,15.53
2019-05-02T01:23:36.538Z,16.95
2019-05-02T01:26:05.108Z,14.93
2019-05-02T01:28:54.314Z,17.95
2019-05-02T01:31:25.568Z,14.90
2019-05-02T01:33:55.600Z,17.00
2019-05-02T01:36:25.657Z,13.08
2019-05-02T01:38:54.075Z,12.47
2019-05-02T01:41:24.102Z,15.18
2019-05-02T01:44:07.907Z,12.70
2019-05-02T01:46:36.325Z,8.28
2019-05-02T01:49:05.578Z,16.05
2019-05-02T01:51:36.676Z,13.95
2019-05-02T01:54:04.930Z,15.05
2019-05-02T01:56:34.935Z,11.28
2019-05-02T01:59:03.454Z,15.43
2019-05-02T02:01:31.858Z,13.30
2019-05-02T02:04:00.264Z,12.80
2019-05-02T02:06:28.680Z,14.95
2019-05-02T02:08:57.087Z,13.88
2019-05-02T02:11:28.411Z,12.70
2019-05-02T02:13:55.644Z,11.80
2019-05-02T02:16:24.062Z,12.40
2019-05-02T02:18:54.116Z,12.60
2019-05-02T02:21:30.147Z,14.10
2019-05-02T02:24:00.192Z,16.40
2019-05-02T02:26:28.603Z,17.95
2019-05-02T02:28:57.135Z,12.40
2019-05-02T02:31:25.543Z,13.00
2019-05-02T02:33:54.025Z,17.98
2019-05-02T02:36:31.267Z,14.87
2019-05-02T02:38:52.589Z,12.25
2019-05-02T02:41:20.991Z,14.00
2019-05-02T02:44:03.262Z,13.45
2019-05-02T02:46:38.055Z,13.35
2019-05-02T02:49:06.473Z,12.80
2019-05-02T02:51:34.891Z,15.35
2019-05-02T02:54:05.591Z,13.22
2019-05-02T02:56:34.547Z,14.45
2019-05-02T02:59:03.915Z,10.98
2019-05-02T03:01:32.308Z,11.70
2019-05-02T03:04:01.792Z,12.20
2019-05-02T03:06:30.857Z,11.35
2019-05-02T03:08:59.340Z,14.40
2019-05-02T03:11:29.380Z,13.85
2019-05-02T03:14:09.615Z,13.25
2019-05-02T03:16:45.585Z,14.25
2019-05-02T03:19:14.878Z,11.45
2019-05-02T03:21:41.776Z,11.43
2019-05-02T03:24:10.350Z,15.75
2019-05-02T03:26:38.833Z,13.93
2019-05-02T03:29:07.311Z,13.28
2019-05-02T03:31:36.099Z,16.77
2019-05-02T03:34:04.844Z,15.25
2019-05-02T03:36:36.513Z,12.23
2019-05-02T03:39:13.481Z,12.80
2019-05-02T03:41:36.102Z,11.12
2019-05-02T03:44:11.089Z,11.95
2019-05-02T03:46:34.873Z,12.60
2019-05-02T03:49:07.425Z,15.18
2019-05-02T03:51:33.503Z,13.80
2019-05-02T03:54:07.378Z,11.45
2019-05-02T03:56:32.044Z,14.53
2019-05-02T03:59:00.544Z,14.70
2019-05-02T04:01:34.573Z,13.68
2019-05-02T04:04:00.360Z,10.20
2019-05-02T04:06:29.751Z,15.35
2019-05-02T04:09:00.017Z,13.88
2019-05-02T04:11:37.975Z,10.72
2019-05-02T04:13:59.501Z,13.20
2019-05-02T04:16:29.265Z,13.88
2019-05-02T04:18:58.425Z,10.63
2019-05-02T04:21:26.946Z,13.70
2019-05-02T04:24:06.651Z,13.25
2019-05-02T04:26:27.943Z,15.72
2019-05-02T04:28:57.292Z,12.95
2019-05-02T04:31:31.530Z,12.85
2019-05-02T04:33:55.878Z,10.95
2019-05-02T04:36:24.277Z,16.10
2019-05-02T04:38:52.982Z,12.82
2019-05-02T04:41:28.504Z,16.48
2019-05-02T04:43:57.710Z,15.30
2019-05-02T04:46:27.001Z,12.70
2019-05-02T04:48:52.846Z,14.87
2019-05-02T04:51:21.806Z,15.75
2019-05-02T04:53:50.331Z,10.53
2019-05-02T04:56:18.914Z,12.20
2019-05-02T04:58:49.512Z,11.53
2019-05-02T05:01:21.006Z,15.70
2019-05-02T05:03:49.182Z,17.98
2019-05-02T05:06:19.028Z,13.58
2019-05-02T05:08:48.324Z,15.48
2019-05-02T05:11:21.350Z,11.50
2019-05-02T05:13:47.915Z,13.15
2019-05-02T05:16:18.499Z,9.85
2019-05-02T05:18:49.268Z,11.28
2019-05-02T05:21:17.850Z,11.88
2019-05-02T05:23:51.696Z,14.20
2019-05-02T05:26:18.600Z,12.73
2019-05-02T05:28:47.688Z,12.37
2019-05-02T05:31:23.641Z,11.53
2019-05-02T05:33:47.889Z,16.90
2019-05-02T05:36:19.730Z,9.85
2019-05-02T05:38:47.823Z,12.53
2019-05-02T05:41:19.914Z,11.08
2019-05-02T05:43:50.098Z,17.92
2019-05-02T05:46:17.875Z,9.80
2019-05-02T05:48:47.675Z,12.28
2019-05-02T05:51:20.378Z,9.98
2019-05-02T05:53:47.844Z,10.32
2019-05-02T05:56:17.991Z,9.53
2019-05-02T05:58:48.080Z,12.43
2019-05-02T06:01:20.102Z,14.30
2019-05-02T06:03:47.380Z,9.18
2019-05-02T06:06:22.456Z,16.73
2019-05-02T06:08:49.185Z,12.58
2019-05-02T06:11:20.075Z,10.23
2019-05-02T06:13:48.911Z,16.87
2019-05-02T06:16:16.710Z,12.33
2019-05-02T06:18:45.175Z,17.32
2019-05-02T06:21:13.629Z,16.00
2019-05-02T06:23:42.084Z,10.60
2019-05-02T06:26:13.609Z,16.02
2019-05-02T06:28:41.627Z,14.40
2019-05-02T06:31:10.773Z,10.10
2019-05-02T06:33:39.189Z,8.33
2019-05-02T06:36:07.595Z,10.65
2019-05-02T06:38:36.137Z,16.10
2019-05-02T06:41:04.700Z,15.10
2019-05-02T06:43:33.116Z,12.90
2019-05-02T06:46:15.240Z,14.15
2019-05-02T06:48:31.677Z,11.08
2019-05-02T06:51:00.097Z,12.35
2019-05-02T06:53:28.497Z,13.72
2019-05-02T06:55:56.929Z,15.98
2019-05-02T06:58:25.334Z,11.53
2019-05-02T07:00:58.071Z,16.82
2019-05-02T07:03:24.157Z,14.03
2019-05-02T07:05:52.637Z,13.30
2019-05-02T07:08:21.083Z,12.85
2019-05-02T07:10:49.562Z,13.62
2019-05-02T07:13:17.972Z,11.48
2019-05-02T07:15:57.042Z,13.48
2019-05-02T07:18:29.805Z,18.67
2019-05-02T07:20:58.296Z,18.80
2019-05-02T07:23:26.745Z,17.55
2019-05-02T07:25:55.147Z,13.70
2019-05-02T07:28:24.167Z,13.68
2019-05-02T07:30:54.670Z,17.37
2019-05-02T07:33:22.960Z,20.60
2019-05-02T07:35:55.146Z,16.40
2019-05-02T07:38:25.791Z,17.87
2019-05-02T07:40:52.946Z,15.03
2019-05-02T07:43:22.418Z,22.20
2019-05-02T07:45:50.919Z,18.70
2019-05-02T07:48:19.333Z,16.77
2019-05-02T07:50:48.191Z,17.80
2019-05-02T07:53:16.724Z,14.80
2019-05-02T07:55:45.227Z,15.63
2019-05-02T07:58:13.647Z,18.10
2019-05-02T08:00:42.153Z,15.28
2019-05-02T08:03:10.568Z,15.50
2019-05-02T08:05:39.047Z,20.48
2019-05-02T08:08:07.582Z,24.32
2019-05-02T08:10:36.150Z,14.78
2019-05-02T08:13:04.631Z,17.42
2019-05-02T08:15:33.116Z,23.90
2019-05-02T08:18:01.649Z,24.12
2019-05-02T08:20:30.251Z,17.57
2019-05-02T08:22:58.672Z,19.12
2019-05-02T08:25:27.084Z,21.40
2019-05-02T08:27:57.140Z,16.30
2019-05-02T08:30:27.629Z,16.42
2019-05-02T08:32:56.052Z,18.10
2019-05-02T08:35:27.628Z,17.55
2019-05-02T08:37:56.102Z,20.17
2019-05-02T08:40:24.924Z,18.12
2019-05-02T08:42:53.346Z,17.65
2019-05-02T08:45:21.752Z,19.50
2019-05-02T08:47:50.177Z,16.65
2019-05-02T08:50:18.947Z,16.60
2019-05-02T08:52:48.135Z,17.67
2019-05-02T08:55:16.769Z,16.90
2019-05-02T08:57:45.319Z,16.10
2019-05-02T09:00:14.280Z,17.07
2019-05-02T09:02:42.694Z,16.62
2019-05-02T09:05:11.449Z,18.07
2019-05-02T09:07:42.773Z,16.60
2019-05-02T09:10:11.260Z,19.60
2019-05-02T09:12:42.052Z,17.90
2019-05-02T09:15:11.807Z,15.55
2019-05-02T09:17:44.643Z,17.55
2019-05-02T09:20:16.612Z,18.25
2019-05-02T09:22:41.917Z,21.95
2019-05-02T09:25:12.500Z,21.15
2019-05-02T09:27:42.046Z,18.07
2019-05-02T09:30:12.135Z,16.97
2019-05-02T09:32:41.849Z,17.23
2019-05-02T09:35:11.757Z,15.90
2019-05-02T09:37:41.951Z,16.55
2019-05-02T09:40:12.639Z,16.42
2019-05-02T09:42:42.983Z,16.12
2019-05-02T09:45:19.501Z,21.12
2019-05-02T09:47:58.195Z,16.25
2019-05-02T09:50:20.640Z,17.48
2019-05-02T09:52:48.341Z,20.52
2019-05-02T09:55:17.792Z,22.27
2019-05-02T09:57:46.537Z,18.35
2019-05-02T10:00:38.804Z,22.87
2019-05-02T10:03:07.567Z,16.57
2019-05-02T10:05:36.018Z,16.30
2019-05-02T10:08:10.991Z,16.00
2019-05-02T10:10:44.174Z,14.70
2019-05-02T10:13:08.375Z,15.18
2019-05-02T10:15:37.160Z,15.83
2019-05-02T10:18:10.990Z,17.45
2019-05-02T10:20:36.688Z,18.50
2019-05-02T10:23:05.569Z,14.43
2019-05-02T10:25:38.439Z,17.27
2019-05-02T10:28:05.333Z,15.13
2019-05-02T10:30:35.965Z,13.65
2019-05-02T10:33:04.991Z,17.60
2019-05-02T10:35:40.697Z,14.90
2019-05-02T10:38:09.402Z,16.52
2019-05-02T10:40:37.780Z,17.90
2019-05-02T10:43:06.264Z,13.80
2019-05-02T10:45:35.508Z,17.30
2019-05-02T10:48:04.334Z,16.02
2019-05-02T10:50:37.155Z,18.52
2019-05-02T10:53:11.896Z,21.40
2019-05-02T10:55:35.897Z,15.03
2019-05-02T10:58:04.532Z,19.30
2019-05-02T11:00:34.840Z,25.43
2019-05-02T11:03:05.921Z,15.18
2019-05-02T11:05:37.366Z,21.73
2019-05-02T11:08:06.515Z,13.32
2019-05-02T11:10:35.107Z,16.32
2019-05-02T11:13:05.336Z,14.28
2019-05-02T11:15:52.484Z,15.00
2019-05-02T11:18:39.506Z,16.15
2019-05-02T11:20:58.959Z,17.30
2019-05-02T11:23:26.410Z,18.32
2019-05-02T11:25:54.836Z,15.45
2019-05-02T11:28:23.245Z,15.18
2019-05-02T11:30:52.530Z,13.15
2019-05-02T11:33:22.866Z,15.05
2019-05-02T11:35:53.459Z,15.55
2019-05-02T11:38:25.532Z,16.02
2019-05-02T11:40:52.089Z,17.05
2019-05-02T11:43:22.309Z,18.48
2019-05-02T11:45:55.878Z,16.12
2019-05-02T11:48:22.631Z,15.80
2019-05-02T11:50:52.298Z,18.48
2019-05-02T11:53:29.020Z,17.37
2019-05-02T11:55:53.014Z,15.63
2019-05-02T11:58:23.014Z,13.38
2019-05-02T12:00:52.300Z,14.80
2019-05-02T12:03:22.570Z,14.50
2019-05-02T12:05:52.381Z,11.85
2019-05-02T12:08:22.586Z,13.83
2019-05-02T12:10:51.920Z,12.85
2019-05-02T12:13:22.539Z,17.02
2019-05-02T12:15:51.892Z,17.48
2019-05-02T12:18:23.211Z,15.60
2019-05-02T12:20:51.981Z,15.90
2019-05-02T12:23:22.679Z,16.32
2019-05-02T12:25:52.025Z,17.45
2019-05-02T12:28:22.741Z,12.53
2019-05-02T12:30:51.895Z,12.43
2019-05-02T12:33:22.397Z,16.20
2019-05-02T12:35:52.473Z,13.45
2019-05-02T12:38:22.932Z,12.78
2019-05-02T12:40:52.046Z,11.48
2019-05-02T12:43:22.723Z,12.07
2019-05-02T12:45:52.241Z,13.15
2019-05-02T12:48:22.043Z,13.72
2019-05-02T12:50:52.616Z,13.50
2019-05-02T12:53:21.967Z,10.30
2019-05-02T12:55:52.564Z,15.65
2019-05-02T12:58:21.907Z,13.25
2019-05-02T13:00:52.878Z,11.43
2019-05-02T13:03:25.380Z,10.95
2019-05-02T13:05:53.813Z,10.20
2019-05-02T13:08:25.161Z,12.45
2019-05-02T13:11:06.818Z,14.07
2019-05-02T13:13:35.672Z,14.07
2019-05-02T13:16:04.396Z,16.15
2019-05-02T13:18:37.146Z,8.28
2019-05-02T13:21:08.080Z,14.47
2019-05-02T13:23:42.584Z,9.90
2019-05-02T13:26:19.692Z,10.93
2019-05-02T13:28:44.091Z,12.15
2019-05-02T13:31:13.610Z,10.25
2019-05-02T13:33:49.945Z,8.90
2019-05-02T13:36:38.988Z,8.43
2019-05-02T13:39:12.382Z,8.25
2019-05-02T13:41:42.767Z,14.18
2019-05-02T13:44:13.215Z,11.55
2019-05-02T13:46:41.985Z,13.40
2019-05-02T13:49:12.667Z,10.48
2019-05-02T13:51:42.477Z,8.78
2019-05-02T13:54:12.599Z,11.55
2019-05-02T13:56:48.352Z,13.00
2019-05-02T13:59:17.606Z,8.28
2019-05-02T14:01:48.751Z,8.33
2019-05-02T14:04:17.315Z,9.28
2019-05-02T14:06:45.797Z,15.65
2019-05-02T14:09:20.070Z,23.85
2019-05-02T14:11:48.266Z,9.55
2019-05-02T14:14:16.673Z,6.97
2019-05-02T14:16:45.166Z,6.20
2019-05-02T14:19:13.578Z,9.10
2019-05-02T14:21:42.253Z,5.12
2019-05-02T14:24:11.818Z,14.10
2019-05-02T14:26:40.457Z,20.00
2019-05-02T14:29:12.605Z,6.85
2019-05-02T14:31:39.084Z,9.58
2019-05-02T14:34:24.161Z,10.70
2019-05-02T14:36:58.709Z,9.80
2019-05-02T14:39:23.094Z,8.63
2019-05-02T14:41:52.591Z,11.93
2019-05-02T14:44:23.322Z,8.15
2019-05-02T14:46:52.310Z,6.97
2019-05-02T14:49:23.907Z,7.05
2019-05-02T14:51:52.527Z,10.32
2019-05-02T14:54:22.883Z,12.58
2019-05-02T14:57:02.187Z,12.05
2019-05-02T14:59:32.261Z,9.00
2019-05-02T15:02:05.777Z,6.22
2019-05-02T15:04:32.792Z,10.20
2019-05-02T15:07:02.062Z,15.68
2019-05-02T15:09:32.679Z,7.58
2019-05-02T15:12:03.059Z,8.33
2019-05-02T15:14:33.972Z,8.88
2019-05-02T15:17:03.282Z,11.40
2019-05-02T15:19:32.999Z,9.88
2019-05-02T15:22:02.335Z,10.68
2019-05-02T15:24:33.319Z,8.85
2019-05-02T15:27:03.647Z,9.40
2019-05-02T15:29:32.131Z,10.68
2019-05-02T15:32:12.659Z,11.30
2019-05-02T15:34:54.981Z,9.93
2019-05-02T15:37:25.686Z,12.98
2019-05-02T15:42:25.515Z,10.63
2019-05-02T15:44:57.072Z,9.80
2019-05-02T15:47:23.984Z,10.35
2019-05-02T15:49:52.779Z,11.18
2019-05-02T15:52:24.199Z,9.38
2019-05-02T15:54:59.646Z,8.50
2019-05-02T15:57:24.978Z,8.58
2019-05-02T15:59:53.759Z,13.20
2019-05-02T16:02:26.454Z,10.85
2019-05-02T16:04:56.979Z,11.75
2019-05-02T16:07:24.142Z,10.90
2019-05-02T16:09:57.240Z,9.98
2019-05-02T16:12:27.081Z,12.68
2019-05-02T16:14:52.864Z,9.78
2019-05-02T16:17:25.626Z,8.50
2019-05-02T16:19:58.694Z,13.68
2019-05-02T16:22:24.856Z,13.25
2019-05-02T16:24:53.768Z,12.55
2019-05-02T16:27:28.899Z,11.68
2019-05-02T16:29:58.442Z,11.33
2019-05-02T16:32:35.801Z,11.22
2019-05-02T16:35:12.383Z,13.38
2019-05-02T16:37:34.020Z,9.78
2019-05-02T16:40:02.775Z,15.15
2019-05-02T16:42:32.822Z,12.55
2019-05-02T16:45:02.646Z,15.00
2019-05-02T16:47:32.609Z,12.40
2019-05-02T16:50:02.484Z,15.10
2019-05-02T16:52:32.726Z,13.13
2019-05-02T16:55:02.964Z,11.83
2019-05-02T16:57:32.747Z,11.83
2019-05-02T17:00:06.020Z,12.82
2019-05-02T17:02:32.427Z,9.78
2019-05-02T17:05:08.037Z,11.88
2019-05-02T17:07:34.893Z,14.68
2019-05-02T17:10:08.491Z,12.25
2019-05-02T17:12:37.315Z,12.88
2019-05-02T17:15:26.370Z,13.25
2019-05-02T17:17:57.151Z,16.17
2019-05-02T17:20:25.653Z,15.63
2019-05-02T17:23:02.162Z,15.65
2019-05-02T17:25:24.580Z,17.07
2019-05-02T17:28:00.493Z,13.45
2019-05-02T17:30:23.212Z,12.07
2019-05-02T17:32:51.631Z,14.13
2019-05-02T17:35:22.096Z,13.35
2019-05-02T17:37:52.412Z,14.98
2019-05-02T17:40:22.452Z,13.00
2019-05-02T17:42:52.457Z,14.93
2019-05-02T17:45:23.866Z,14.63
2019-05-02T17:47:52.530Z,18.65
2019-05-02T17:50:25.755Z,14.10
2019-05-02T17:52:56.207Z,11.67
2019-05-02T17:55:26.202Z,14.90
2019-05-02T17:57:54.622Z,20.57
2019-05-02T18:00:24.745Z,14.63
2019-05-02T18:02:53.399Z,13.28
2019-05-02T18:05:26.495Z,16.77
2019-05-02T18:07:52.679Z,12.80
2019-05-02T18:10:23.022Z,18.85
2019-05-02T18:12:56.744Z,12.75
2019-05-02T18:15:22.820Z,18.60
2019-05-02T18:17:52.358Z,14.28
2019-05-02T18:20:21.958Z,12.35
2019-05-02T18:22:51.945Z,14.45
2019-05-02T18:25:24.037Z,16.17
2019-05-02T18:27:51.822Z,16.32
2019-05-02T18:30:24.956Z,11.05
2019-05-02T18:32:52.855Z,14.87
2019-05-02T18:35:22.078Z,14.55
2019-05-02T18:37:51.743Z,14.23
2019-05-02T18:40:28.223Z,12.15
2019-05-02T18:42:51.920Z,12.85
2019-05-02T18:45:28.559Z,13.72
2019-05-02T18:48:02.166Z,13.72
2019-05-02T18:50:36.788Z,12.68
2019-05-02T18:53:04.128Z,12.05
2019-05-02T18:55:33.542Z,13.38
2019-05-02T18:58:05.409Z,14.73
2019-05-02T19:00:37.786Z,12.47
2019-05-02T19:03:15.317Z,13.90
2019-05-02T19:05:46.657Z,13.43
2019-05-02T19:08:14.306Z,12.18
2019-05-02T19:11:01.324Z,15.68
2019-05-02T19:13:13.954Z,13.98
2019-05-02T19:15:47.600Z,16.85
2019-05-02T19:18:17.975Z,13.83
2019-05-02T19:20:57.442Z,12.55
2019-05-02T19:23:25.085Z,18.35
2019-05-02T19:25:54.560Z,16.55
2019-05-02T19:28:29.053Z,14.63
2019-05-02T19:30:57.319Z,12.63
2019-05-02T19:33:27.775Z,13.78
2019-05-02T19:35:57.368Z,14.80
2019-05-02T19:38:26.731Z,15.72
2019-05-02T19:40:58.163Z,18.48
2019-05-02T19:43:27.277Z,16.23
2019-05-02T19:45:56.672Z,15.10
2019-05-02T19:48:27.443Z,17.80
2019-05-02T19:50:57.091Z,15.60
2019-05-02T19:53:26.284Z,14.65
2019-05-02T19:55:57.242Z,14.60
2019-05-02T19:58:27.057Z,16.02
2019-05-02T20:00:56.688Z,19.07
2019-05-02T20:03:26.301Z,14.55
2019-05-02T20:05:56.740Z,13.32
2019-05-02T20:08:26.284Z,19.85
2019-05-02T20:10:58.290Z,16.35
2019-05-02T20:13:30.564Z,17.60
2019-05-02T20:16:14.453Z,16.90
2019-05-02T20:18:47.192Z,14.58
2019-05-02T20:21:27.332Z,13.62
2019-05-02T20:23:52.695Z,16.48
2019-05-02T20:26:22.086Z,15.80
2019-05-02T20:28:52.628Z,14.85
2019-05-02T20:31:21.725Z,16.00
2019-05-02T20:33:52.040Z,18.48
2019-05-02T20:36:22.634Z,18.00
2019-05-02T20:38:52.557Z,15.58
2019-05-02T20:41:22.384Z,17.30
2019-05-02T20:43:51.653Z,22.70
2019-05-02T20:46:21.911Z,17.65
2019-05-02T20:48:52.395Z,17.10
2019-05-02T20:51:22.590Z,17.80
2019-05-02T20:53:52.582Z,19.92
2019-05-02T20:56:23.042Z,20.27
2019-05-02T20:58:52.640Z,20.60
2019-05-02T21:01:23.626Z,18.62
2019-05-02T21:03:52.315Z,22.13
2019-05-02T21:06:37.558Z,21.93
2019-05-02T21:08:57.356Z,23.15
2019-05-02T21:11:26.645Z,26.33
2019-05-02T21:13:55.147Z,25.62
2019-05-02T21:16:23.726Z,28.20
2019-05-02T21:18:52.148Z,26.62
2019-05-02T21:21:22.108Z,24.02
2019-05-02T21:23:52.757Z,25.82
2019-05-02T21:26:36.917Z,26.75
2019-05-02T21:29:05.574Z,21.33
2019-05-02T21:31:33.982Z,16.82
2019-05-02T21:34:02.665Z,19.50
2019-05-02T21:36:31.980Z,19.82
2019-05-02T21:39:02.619Z,17.85
2019-05-02T21:41:32.833Z,15.68
2019-05-02T21:44:02.511Z,19.40
2019-05-02T21:46:31.739Z,17.02
2019-05-02T21:49:00.550Z,16.07
2019-05-02T21:51:31.967Z,17.67
2019-05-02T21:54:07.861Z,17.35
2019-05-02T21:56:43.581Z,14.50
2019-05-02T21:59:12.772Z,14.05
2019-05-02T22:01:45.892Z,15.72
2019-05-02T22:04:14.311Z,11.78
2019-05-02T22:06:43.078Z,15.55
2019-05-02T22:09:12.467Z,15.45
2019-05-02T22:11:43.010Z,11.73
2019-05-02T22:14:13.330Z,11.53
2019-05-02T22:16:42.419Z,10.10
2019-05-02T22:19:11.091Z,14.83
2019-05-02T22:21:39.552Z,10.88
2019-05-02T22:24:11.521Z,7.97
2019-05-02T22:26:38.275Z,8.70
2019-05-02T22:29:06.696Z,13.53
2019-05-02T22:31:35.188Z,12.93
2019-05-02T22:34:03.673Z,11.93
2019-05-02T22:36:32.731Z,15.08
2019-05-02T22:39:03.155Z,14.55
2019-05-02T22:41:32.609Z,13.53
2019-05-02T22:44:01.951Z,11.57
2019-05-02T22:46:43.858Z,13.98
2019-05-02T22:49:14.609Z,14.53
2019-05-02T22:51:43.727Z,14.07
2019-05-02T22:54:24.044Z,16.85
2019-05-02T22:56:43.644Z,14.60
2019-05-02T22:59:12.063Z,10.63
2019-05-02T23:01:42.247Z,11.12
2019-05-02T23:04:12.524Z,10.05
2019-05-02T23:06:43.990Z,9.23
2019-05-02T23:09:12.746Z,9.15
2019-05-02T23:11:42.592Z,6.12
2019-05-02T23:14:11.479Z,7.05
2019-05-02T23:16:42.297Z,5.85
2019-05-02T23:19:12.069Z,8.00
2019-05-02T23:21:41.933Z,6.28
2019-05-02T23:24:14.498Z,7.58
2019-05-02T23:26:46.609Z,8.15
2019-05-02T23:29:16.648Z,4.67
2019-05-02T23:31:45.045Z,6.12
2019-05-02T23:34:13.464Z,8.70
2019-05-02T23:36:41.863Z,6.12
2019-05-02T23:39:19.764Z,3.92
2019-05-02T23:41:48.164Z,11.80
2019-05-02T23:44:16.680Z,5.03
2019-05-02T23:46:45.092Z,5.80
2019-05-02T23:49:13.508Z,8.23
2019-05-02T23:51:42.705Z,8.45
2019-05-02T23:54:12.855Z,4.05
2019-05-02T23:56:43.129Z,3.85
2019-05-02T23:59:12.025Z,6.00
